Dothan Regional Airport Dothan US
ICAO: KDHN
IATA: DHN
Category: Medium
Scheduled Services: Yes

Elevation: 401 ft
TransAlt. 18000 ft.

Airport Communications:
CAIRNS APP/DEP:125.4
ATIS:135.72
CTAF:118.4
GND:121.7
VFR ADVSY SVC:118.4
ANNISTON RDO:122.2
TWR:118.4
UNICOM:122.95

KDHN Zoom In..

Runways:

(A) RW 14 length 8499 ft width 150 ft
ILS 110.75 / hdg 138

(B) RW 18 length 5498 ft width 100 ft
---- / hdg 183

(C) RW 32 length 8499 ft width 150 ft
ILS 108.30 / hdg 318

(D) RW 36 length 5498 ft width 100 ft
---- / hdg 3

Location; KDHN
Day. 20 / Time. 09.53 Zulu
* Altimeter: 30.20
* Temperature: 08° c. 46.4°f.
* Wind from: 010° Speed 05 kn.
Dewpoint: 03° c.
Visibility: 10 Statute Miles.
Clouds: Clear (automated report).

KDHN 200953Z AUTO 01005KT 10SM CLR 08/03 A3020 RMK AO2 SLP225 T00830028


Wind From 010°
Speed 05 kn.

  YouTube Music Video
 
jpsmedia.com for Web Design  worldairports.se 2018   terms of use